• Join FlightAware (Why Join?)
  • Login
  • US Flag 
03:19PM EDT


 

Airport Tracker/Info


-or-


 

Live Flight TrackerFlight Track Log ✈ N960DL ✈ 23-Jul-2013 ✈ KDFW - KATL

Flight Track Log - Related Links

Times and Time Zones

All times are in EDT time to prevent confusion due to time zone crossing. See the N960DL flight status page for this flight to view local times or setup timezone preferences in your user account.

Time Position Orientation Groundspeed Altitude Reporting Facility
EDT Latitude Longitude Course Direction KTS MPH feet Rate Location/Type
11:00AM 32.8833 -97.0333 180° South 177 204 1,200  Level Dallas / Fort Worth TRACON
11:01AM 32.8500 -97.0333 180° South 205 236 2,300 1,740 Climbing Dallas / Fort Worth TRACON
11:02AM 32.7242 -97.0306 179° South 236 272 5,800 1,980 Climbing Fort Worth Center
11:03AM 32.6928 -96.9494 115° Southeast 221 254 8,000 2,040 Climbing Fort Worth Center
11:04AM 32.6983 -96.8333 87° East 248 285 9,900 1,320 Climbing Fort Worth Center
11:05AM 32.7103 -96.7147 83° East 338 389 10,700 1,380 Climbing Fort Worth Center
11:06AM 32.7283 -96.5836 81° East 392 451 12,700 2,040 Climbing Fort Worth Center
11:07AM 32.7461 -96.4453 81° East 411 473 14,800 1,980 Climbing Fort Worth Center
11:08AM 32.7533 -96.2994 87° East 432 497 16,700 1,800 Climbing Fort Worth Center
11:09AM 32.7356 -96.1711 99° East 438 504 18,500 1,680 Climbing Fort Worth Center
11:10AM 32.7108 -96.0061 100° East 458 527 20,100 1,500 Climbing Fort Worth Center
11:11AM 32.6861 -95.8683 102° East 468 539 21,500 1,260 Climbing Fort Worth Center
11:12AM 32.6608 -95.6958 100° East 477 549 22,700 1,500 Climbing Fort Worth Center
11:13AM 32.6611 -95.5528 90° East 486 559 24,500 1,260 Climbing Fort Worth Center
11:14AM 32.6753 -95.3994 84° East 464 534 25,300 1,020 Climbing Fort Worth Center
11:15AM 32.6847 -95.2192 86° East 486 559 26,600 1,200 Climbing Fort Worth Center
11:16AM 32.6967 -95.0583 85° East 486 559 27,700 1,200 Climbing Fort Worth Center
11:17AM 32.7081 -94.8975 85° East 486 559 29,100 1,200 Climbing Fort Worth Center
11:18AM 32.6964 -94.7400 95° East 481 554 30,100 900 Climbing Fort Worth Center
11:19AM 32.6431 -94.5911 113° Southeast 469 540 31,000 420 Climbing Fort Worth Center
11:20AM 32.5939 -94.4422 111° Southeast 474 545 31,000  Level Fort Worth Center
11:21AM 32.5442 -94.2936 112° Southeast 485 558 31,000  Level Fort Worth Center
11:22AM 32.4925 -94.1450 112° Southeast 485 558 31,000  Level Fort Worth Center
11:23AM 32.4425 -93.9967 112° Southeast 490 564 31,000  Level Fort Worth Center
11:24AM 32.3906 -93.8511 113° Southeast 485 558 31,000  Level Fort Worth Center
11:25AM 32.3403 -93.7031 112° Southeast 485 558 31,000  Level Fort Worth Center
11:28AM 32.2297 -93.3783 112° Southeast 492 566 31,000  Level Houston Center
11:29AM 32.1789 -93.2278 112° Southeast 494 568 31,000  Level Houston Center
11:30AM 32.1247 -93.0789 113° Southeast 494 568 31,000  Level Houston Center
11:31AM 32.0639 -92.9172 114° Southeast 497 572 31,000  Level Houston Center
11:32AM 32.0086 -92.7689 114° Southeast 495 570 31,000  Level Houston Center
11:33AM 31.9606 -92.6164 110° East 495 570 31,000  Level Houston Center
11:34AM 31.9292 -92.4606 103° East 491 565 31,000  Level Houston Center
11:35AM 31.8975 -92.3042 103° East 491 565 31,000  Level Houston Center
11:36AM 31.8606 -92.1186 103° East 487 560 31,000  Level Houston Center
11:37AM 31.8322 -91.9733 103° East 486 559 31,000  Level Houston Center
11:38AM 31.8003 -91.8172 103° East 489 563 31,000  Level Houston Center
11:39AM 31.7692 -91.6617 103° East 488 562 31,000  Level Houston Center
11:40AM 31.7325 -91.4747 103° East 489 563 31,000  Level Houston Center
11:41AM 31.7014 -91.3178 103° East 492 566 31,000  Level Houston Center
11:42AM 31.6703 -91.1622 103° East 491 565 31,000 240 Level Houston Center
11:43AM 31.6403 -91.0106 103° East 491 565 31,600 600 Climbing Houston Center
11:44AM 31.6089 -90.8553 103° East 490 564 32,300 540 Climbing Houston Center
11:45AM 31.5778 -90.7011 103° East 487 560 32,800 300 Climbing Houston Center
11:46AM 31.5400 -90.5164 103° East 486 559 33,000 60 Climbing Houston Center
11:47AM 31.5092 -90.3633 103° East 481 554 33,000  Level Houston Center
11:48AM 31.5028 -90.2083 93° East 475 547 33,000  Level Houston Center
11:49AM 31.5019 -90.0525 90° East 477 549 33,000  Level Houston Center
11:50AM 31.5003 -89.8961 91° East 478 550 33,000  Level Houston Center
11:51AM 31.4997 -89.7408 90° East 477 549 33,000  Level Houston Center
11:52AM 31.4983 -89.5542 90° East 477 549 33,000  Level Houston Center
11:53AM 31.4956 -89.4133 91° East 478 550 33,000  Level Houston Center
11:54AM 31.4917 -89.2594 92° East 475 547 33,000  Level Houston Center
11:56AM 31.4886 -89.0731 91° East 476 548 33,000  Level Houston Center
11:57AM 31.4881 -88.9164 90° East 479 551 33,000  Level Houston Center
11:58AM 31.4850 -88.7611 91° East 477 549 33,000  Level Houston Center
11:59AM 31.4833 -88.6044 91° East 479 551 33,000  Level Houston Center
12:00PM 31.4806 -88.4486 91° East 477 549 33,000  Level Houston Center
12:01PM 31.4781 -88.2942 91° East 473 544 33,000  Level Houston Center
12:02PM 31.5019 -88.1453 79° East 469 540 33,000  Level Houston Center
12:03PM 31.5833 -87.9942 58° Northeast 454 522 33,000 -120 Level Houston Center
12:04PM 31.6539 -87.8664 57° Northeast 444 511 32,800 -1,140 Descending Atlanta Center
12:05PM 31.7247 -87.7378 57° Northeast 455 524 30,800 -1,560 Descending Atlanta Center
12:06PM 31.7953 -87.6086 57° Northeast 462 532 29,700 -900 Descending Atlanta Center
12:07PM 31.8678 -87.4747 57° Northeast 468 539 29,100 -360 Descending Atlanta Center
12:08PM 31.9383 -87.3403 58° Northeast 468 539 29,000 -60 Descending Atlanta Center
12:09PM 32.0022 -87.2178 58° Northeast 473 544 29,000  Level Atlanta Center
12:10PM 32.0744 -87.0831 58° Northeast 473 544 29,000  Level Atlanta Center
12:11PM 32.1464 -86.9481 58° Northeast 478 550 29,000  Level Atlanta Center
12:12PM 32.2186 -86.8131 58° Northeast 478 550 29,000  Level Atlanta Center
12:13PM 32.3031 -86.6706 55° Northeast 478 550 29,000 -420 Level Atlanta Center
12:14PM 32.3747 -86.5350 58° Northeast 483 556 28,200 -960 Descending Atlanta Center
12:15PM 32.4272 -86.4061 64° Northeast 483 556 27,100 -1,140 Descending Atlanta Center
12:16PM 32.5117 -86.2508 57° Northeast 487 560 26,000 -1,080 Descending Atlanta Center
12:17PM 32.5828 -86.1119 59° Northeast 492 566 25,000 -1,440 Descending Atlanta Center
12:18PM 32.6497 -85.9778 59° Northeast 487 560 23,200 -1,980 Descending Atlanta Center
12:19PM 32.7164 -85.8486 58° Northeast 468 539 21,100 -1,740 Descending Atlanta Center
12:20PM 32.7786 -85.7286 58° Northeast 445 512 19,800 -1,200 Descending Atlanta Center
12:21PM 32.8408 -85.6064 59° Northeast 428 493 18,800 -960 Descending Atlanta Center
12:22PM 32.9006 -85.4911 58° Northeast 417 480 17,900 -900 Descending Atlanta Center
12:23PM 32.9625 -85.3733 58° Northeast 417 480 17,100 -720 Descending Atlanta Center
12:24PM 33.0222 -85.2553 59° Northeast 417 480 16,500 -960 Descending Atlanta Center
12:25PM 33.0919 -85.1547 50° Northeast 404 465 15,200 -1,140 Descending Atlanta Center
12:26PM 33.1556 -85.0661 49° Northeast 399 459 14,300 -1,140 Descending Atlanta Center
12:27PM 33.2833 -84.9000 47° Northeast 387 445 12,200 -900 Descending Atlanta TRACON
12:28PM 33.3500 -84.8000 51° Northeast 352 405 12,000 -120 Descending Atlanta TRACON
12:29PM 33.4167 -84.7167 46° Northeast 322 371 12,000  Level Atlanta TRACON
12:30PM 33.4667 -84.6500 48° Northeast 320 368 12,000  Level Atlanta TRACON
12:31PM 33.5167 -84.5667 54° Northeast 293 337 12,000 -1,020 Level Atlanta TRACON
12:32PM 33.5500 -84.4833 64° Northeast 295 339 10,000 -1,980 Descending Atlanta TRACON
12:33PM 33.5500 -84.3833 90° East 290 334 7,900 -2,160 Descending Atlanta TRACON
12:34PM 33.5500 -84.3000 90° East 276 318 6,000 -2,040 Descending Atlanta TRACON
12:35PM 33.5500 -84.2000 90° East 273 314 3,900 -1,440 Descending Atlanta TRACON
12:36PM 33.5500 -84.1167 90° East 250 288 3,200 -480 Descending Atlanta TRACON
12:37PM 33.6000 -84.0833 29° Northeast 189 217 3,000 -120 Descending Atlanta TRACON
12:38PM 33.6167 -84.1333 292° West 172 198 3,000  Level Atlanta TRACON
12:39PM 33.6167 -84.1833 270° West 176 203 3,000  Level Atlanta TRACON
12:40PM 33.6167 -84.2500 270° West 180 207 3,000  Level Atlanta TRACON